Time;durP1;ratioP1;P1;durP2;ratioP2;P2;SDS_P1;SDS_P2;PMS_P1;PMS_P2;Temp;Humidity;BMP_temperature;BMP_pressure;BME280_temperature;BME280_humidity;BME280_pressure;Samples;Min_cycle;Max_cycle;Signal;HPM_P1;HPM_P2
2021/05/18 00:01:19;;;;;;;13.25;5.93;;;9.80;93.70;;;;;;4976515;28;20046;-79
2021/05/18 00:03:44;;;;;;;12.75;7.95;;;9.90;93.80;;;;;;4995430;28;20136;-80
2021/05/18 00:06:10;;;;;;;15.27;6.68;;;9.70;93.70;;;;;;4977215;28;20512;-80
2021/05/18 00:11:42;;;;;;;13.30;6.60;;;9.70;93.80;;;;;;4979745;28;20457;-80
2021/05/18 00:11:54;;;;;;;12.43;6.35;;;9.70;94.00;;;;;;4992577;28;20363;-80
2021/05/18 00:14:13;;;;;;;11.32;5.40;;;9.70;93.90;;;;;;4981605;28;20207;-79
2021/05/18 00:16:39;;;;;;;10.63;5.90;;;9.70;93.90;;;;;;4978629;28;20073;-80
2021/05/18 00:19:05;;;;;;;14.85;6.50;;;9.80;93.90;;;;;;4983006;28;20131;-79
2021/05/18 00:21:30;;;;;;;19.55;8.30;;;9.90;94.10;;;;;;4970263;28;20033;-79
2021/05/18 00:23:56;;;;;;;12.25;5.93;;;9.90;93.90;;;;;;4997124;28;20121;-80
2021/05/18 00:26:21;;;;;;;17.42;7.53;;;9.80;94.50;;;;;;4979549;28;20034;-79
2021/05/18 00:28:47;;;;;;;16.40;7.28;;;10.00;93.50;;;;;;4998323;28;20084;-79
2021/05/18 00:31:12;;;;;;;16.15;7.88;;;9.90;93.80;;;;;;4949357;28;20030;-79
2021/05/18 00:33:41;;;;;;;18.73;8.45;;;9.80;94.00;;;;;;4984823;28;20050;-80
2021/05/18 00:36:07;;;;;;;25.23;10.20;;;9.80;94.30;;;;;;4980893;28;20041;-79
2021/05/18 00:38:33;;;;;;;17.25;8.20;;;9.70;94.00;;;;;;4977331;28;20042;-80
2021/05/18 00:40:58;;;;;;;8.60;6.47;;;9.80;94.40;;;;;;4975236;28;20406;-79
2021/05/18 00:43:24;;;;;;;19.15;9.40;;;9.90;94.20;;;;;;4997432;28;20037;-79
2021/05/18 00:45:50;;;;;;;12.52;7.53;;;9.90;94.00;;;;;;4981245;28;20038;-79
2021/05/18 00:48:17;;;;;;;18.73;9.45;;;9.70;94.10;;;;;;4980949;28;20046;-80
2021/05/18 00:50:47;;;;;;;18.17;8.70;;;9.60;94.10;;;;;;4998850;28;20038;-80
2021/05/18 00:53:13;;;;;;;17.27;8.38;;;9.70;94.30;;;;;;4981647;28;20044;-79
2021/05/18 01:00:50;;;;;;;20.38;8.15;;;9.80;94.40;;;;;;4984675;28;20037;-79
2021/05/18 01:03:16;;;;;;;12.43;7.38;;;9.70;94.30;;;;;;4982319;28;20042;-79
2021/05/18 01:08:26;;;;;;;20.65;11.07;;;9.60;94.10;;;;;;4999555;28;20405;-79
2021/05/18 01:10:51;;;;;;;16.25;7.72;;;9.50;94.10;;;;;;4993798;28;20034;-79
2021/05/18 01:13:17;;;;;;;11.85;7.43;;;9.60;94.50;;;;;;4984973;28;20042;-80
2021/05/18 01:15:43;;;;;;;25.58;12.02;;;9.70;94.20;;;;;;4983810;28;20030;-79
2021/05/18 01:18:08;;;;;;;14.27;8.85;;;9.70;94.20;;;;;;4995636;28;20037;-79
2021/05/18 01:20:58;;;;;;;19.13;9.55;;;9.70;94.10;;;;;;4967127;28;20034;-79
2021/05/18 01:23:24;;;;;;;22.95;9.40;;;9.60;94.20;;;;;;4996020;28;20042;-79
2021/05/18 01:25:50;;;;;;;12.45;7.00;;;9.70;94.20;;;;;;4982312;28;20541;-79
2021/05/18 01:28:15;;;;;;;15.50;7.30;;;9.70;94.40;;;;;;4978389;28;20125;-80
2021/05/18 01:30:41;;;;;;;13.07;7.10;;;9.60;94.40;;;;;;4983654;28;20438;-79
2021/05/18 01:33:07;;;;;;;21.75;10.32;;;9.60;94.40;;;;;;4966305;28;20048;-80
2021/05/18 01:35:32;;;;;;;13.45;7.90;;;9.60;94.00;;;;;;4981181;28;20042;-79
2021/05/18 01:37:58;;;;;;;22.50;9.95;;;9.60;94.30;;;;;;4969371;28;21133;-80
2021/05/18 01:42:52;;;;;;;11.00;7.32;;;9.60;94.10;;;;;;4980939;28;20393;-79
2021/05/18 01:45:22;;;;;;;19.63;9.13;;;9.60;94.40;;;;;;4996628;28;20742;-79
2021/05/18 01:47:51;;;;;;;17.67;9.02;;;9.60;94.40;;;;;;4964376;28;20746;-79
2021/05/18 01:50:17;;;;;;;16.45;10.32;;;9.70;94.20;;;;;;4997090;28;20057;-80
2021/05/18 01:52:42;;;;;;;18.60;10.07;;;9.70;94.30;;;;;;4983837;28;20065;-80
2021/05/18 01:55:09;;;;;;;14.35;7.35;;;9.60;94.20;;;;;;4968561;28;20054;-80
2021/05/18 01:57:34;;;;;;;18.58;8.18;;;9.60;94.50;;;;;;4984961;28;20070;-79
2021/05/18 02:00:00;;;;;;;10.75;6.57;;;9.50;94.20;;;;;;4995674;28;20504;-80
2021/05/18 02:02:25;;;;;;;12.23;6.32;;;9.60;94.40;;;;;;4997086;28;20602;-79
2021/05/18 02:04:56;;;;;;;17.65;8.55;;;9.70;94.40;;;;;;4995106;28;20034;-79
2021/05/18 02:07:26;;;;;;;15.00;6.60;;;9.80;94.30;;;;;;4980536;28;20437;-79
2021/05/18 02:09:52;;;;;;;10.15;5.55;;;9.90;94.40;;;;;;4966552;28;20564;-79
2021/05/18 02:12:18;;;;;;;17.73;7.72;;;9.90;94.50;;;;;;4997233;28;20238;-79
2021/05/18 02:14:46;;;;;;;19.58;8.20;;;10.00;94.00;;;;;;4966123;28;20117;-79
2021/05/18 02:24:35;;;;;;;19.30;8.00;;;9.90;94.80;;;;;;4960081;28;20093;-79
2021/05/18 02:25:03;;;;;;;20.55;13.82;;;9.90;94.70;;;;;;4995889;28;20038;-79
2021/05/18 02:27:29;;;;;;;23.02;10.50;;;9.90;94.80;;;;;;4980892;28;20029;-79
2021/05/18 02:29:55;;;;;;;24.50;13.27;;;9.80;94.70;;;;;;4981206;28;20477;-79
2021/05/18 02:32:25;;;;;;;16.30;9.65;;;9.80;94.60;;;;;;4983553;28;20034;-79
2021/05/18 02:34:50;;;;;;;22.98;12.35;;;9.80;94.90;;;;;;4976652;28;20034;-79
2021/05/18 02:37:16;;;;;;;29.85;12.68;;;9.80;94.60;;;;;;4996537;28;20089;-79
2021/05/18 02:39:41;;;;;;;22.27;11.63;;;9.80;94.60;;;;;;4964112;28;20077;-79
2021/05/18 02:42:07;;;;;;;16.23;10.75;;;9.70;94.80;;;;;;4982245;28;20081;-79
2021/05/18 02:44:41;;;;;;;12.10;7.68;;;9.80;94.80;;;;;;4987800;28;20210;-79
2021/05/18 02:49:50;;;;;;;15.50;9.82;;;9.90;94.70;;;;;;4981942;28;20034;-80
2021/05/18 02:52:16;;;;;;;17.52;9.90;;;9.90;94.80;;;;;;4981207;28;20478;-80
2021/05/18 02:54:46;;;;;;;14.90;8.65;;;9.90;95.00;;;;;;4990012;28;20034;-79
2021/05/18 02:57:13;;;;;;;13.32;10.02;;;9.80;94.80;;;;;;4994056;28;20076;-80
2021/05/18 02:59:38;;;;;;;15.85;10.40;;;9.80;95.00;;;;;;4982043;28;20547;-79
2021/05/18 03:02:04;;;;;;;12.95;8.40;;;9.80;94.80;;;;;;4963084;28;20026;-80
2021/05/18 03:04:29;;;;;;;16.55;10.93;;;9.80;94.80;;;;;;4971921;28;20072;-80
2021/05/18 03:06:55;;;;;;;16.70;9.55;;;9.80;95.10;;;;;;4995029;28;20034;-79
2021/05/18 03:09:21;;;;;;;15.45;9.50;;;9.80;95.00;;;;;;4978522;28;20426;-79
2021/05/18 03:11:50;;;;;;;12.13;10.32;;;9.90;94.80;;;;;;4969628;28;20027;-80
2021/05/18 03:14:15;;;;;;;16.65;9.13;;;9.90;94.90;;;;;;4995053;28;20037;-80
2021/05/18 03:16:42;;;;;;;19.63;14.15;;;9.90;94.90;;;;;;4979078;28;20034;-80
2021/05/18 03:19:09;;;;;;;14.05;9.63;;;9.80;94.90;;;;;;4979272;28;20034;-80
2021/05/18 03:21:38;;;;;;;25.70;15.82;;;9.90;95.10;;;;;;4974885;28;20038;-80
2021/05/18 03:24:04;;;;;;;15.88;10.50;;;9.90;95.20;;;;;;4976368;28;20461;-80
2021/05/18 03:26:29;;;;;;;20.50;12.10;;;9.80;95.20;;;;;;4991562;28;20033;-79
2021/05/18 03:29:01;;;;;;;16.20;10.65;;;9.80;95.10;;;;;;4995250;28;20061;-79
2021/05/18 03:36:57;;;;;;;20.67;12.25;;;9.90;95.10;;;;;;4995420;28;20083;-78
2021/05/18 03:39:23;;;;;;;17.23;10.43;;;9.90;95.50;;;;;;4996669;28;20049;-77
2021/05/18 04:03:00;;;;;;;16.40;11.32;;;9.90;95.60;;;;;;4999500;28;20053;-78
2021/05/18 04:51:11;;;;;;;13.82;8.70;;;10.00;95.20;;;;;;4982978;28;20052;-78
2021/05/18 04:59:14;;;;;;;9.07;7.28;;;10.00;95.40;;;;;;4996725;28;20097;-79
2021/05/18 05:02:08;;;;;;;5.50;4.20;;;10.00;95.30;;;;;;4993825;28;20066;-80
2021/05/18 05:07:28;;;;;;;8.55;7.30;;;10.00;95.30;;;;;;4657188;28;10000212;-80
2021/05/18 05:09:51;;;;;;;11.93;7.53;;;10.10;95.40;;;;;;4999430;28;20089;-80
2021/05/18 05:14:43;;;;;;;9.35;6.00;;;10.10;95.30;;;;;;5000213;28;20088;-80
2021/05/18 05:17:08;;;;;;;10.05;6.93;;;10.10;95.40;;;;;;4981986;28;20574;-80
2021/05/18 05:19:34;;;;;;;11.27;6.93;;;10.10;95.20;;;;;;5000505;28;20633;-79
2021/05/18 05:22:00;;;;;;;9.57;6.13;;;10.10;95.30;;;;;;5001240;28;20097;-79
2021/05/18 05:24:26;;;;;;;7.45;5.70;;;10.20;95.20;;;;;;4980397;28;20039;-79
2021/05/18 05:26:52;;;;;;;10.85;7.60;;;10.20;95.40;;;;;;4982856;28;20126;-79
2021/05/18 05:29:17;;;;;;;11.25;7.35;;;10.20;95.60;;;;;;4979572;28;20037;-79
2021/05/18 05:31:43;;;;;;;8.20;6.10;;;10.20;95.20;;;;;;4978937;28;20045;-79
2021/05/18 05:34:09;;;;;;;9.13;6.20;;;10.20;95.50;;;;;;4982011;28;20038;-79
2021/05/18 05:36:35;;;;;;;10.73;7.05;;;10.30;95.60;;;;;;4971365;28;20041;-78
2021/05/18 05:39:03;;;;;;;11.77;7.35;;;10.30;95.60;;;;;;4981106;28;20354;-78
2021/05/18 05:41:29;;;;;;;8.48;6.75;;;10.30;95.70;;;;;;4998322;28;20088;-77
2021/05/18 05:43:54;;;;;;;9.77;7.63;;;10.30;95.60;;;;;;4997511;28;20401;-76
2021/05/18 05:46:20;;;;;;;11.07;7.65;;;10.30;95.60;;;;;;4995850;28;20049;-77
2021/05/18 05:48:52;;;;;;;11.13;7.03;;;10.30;95.60;;;;;;4981170;28;20042;-77
2021/05/18 05:51:27;;;;;;;13.07;9.30;;;10.30;95.60;;;;;;4997995;28;20029;-78
2021/05/18 05:53:54;;;;;;;13.30;7.95;;;10.30;95.90;;;;;;4977752;28;20425;-78
2021/05/18 05:56:19;;;;;;;8.90;5.00;;;10.40;95.90;;;;;;4997096;28;20105;-77
2021/05/18 05:58:45;;;;;;;14.32;9.60;;;10.40;95.70;;;;;;4979070;28;20038;-77
2021/05/18 06:01:11;;;;;;;13.48;8.25;;;10.50;95.70;;;;;;4980553;28;20034;-77
2021/05/18 06:03:37;;;;;;;18.38;8.73;;;10.50;95.60;;;;;;4976643;28;20046;-78
2021/05/18 06:06:03;;;;;;;13.60;7.65;;;10.50;95.70;;;;;;4997088;28;20045;-78
2021/05/18 06:08:28;;;;;;;10.93;7.15;;;10.60;95.70;;;;;;4997659;28;20076;-78
2021/05/18 06:11:04;;;;;;;20.27;13.77;;;10.60;95.60;;;;;;4998161;28;20051;-78
2021/05/18 06:16:38;;;;;;;20.55;13.15;;;10.70;95.60;;;;;;4995259;28;20032;-78
2021/05/18 06:34:05;;;;;;;19.17;11.70;;;10.80;95.60;;;;;;5010957;28;20073;-78
2021/05/18 06:41:19;;;;;;;20.85;11.15;;;10.80;95.50;;;;;;4991529;28;20069;-78
2021/05/18 06:47:06;;;;;;;17.13;11.38;;;10.90;95.50;;;;;;4997052;28;20397;-77
2021/05/18 06:49:20;;;;;;;21.98;13.20;;;10.80;95.40;;;;;;4985824;28;20041;-78
2021/05/18 06:51:46;;;;;;;13.48;10.27;;;10.80;95.70;;;;;;4996485;28;20393;-78
2021/05/18 06:54:12;;;;;;;24.73;17.30;;;10.90;95.30;;;;;;4984052;28;20670;-78
2021/05/18 06:56:44;;;;;;;21.65;15.38;;;11.00;95.60;;;;;;4985638;28;20033;-78
2021/05/18 07:01:35;;;;;;;22.30;15.15;;;11.10;95.50;;;;;;5001973;28;20034;-78
2021/05/18 07:04:05;;;;;;;23.02;14.38;;;11.10;95.60;;;;;;4982122;28;20045;-79
2021/05/18 07:06:48;;;;;;;17.73;11.60;;;11.20;95.40;;;;;;4969769;28;20030;-79
2021/05/18 07:09:14;;;;;;;17.23;11.15;;;11.20;95.30;;;;;;4984786;28;20545;-79
2021/05/18 07:11:40;;;;;;;25.48;18.30;;;11.20;95.40;;;;;;4981180;28;20033;-78
2021/05/18 07:14:05;;;;;;;18.45;13.55;;;11.40;95.90;;;;;;4983592;28;20030;-78
2021/05/18 07:16:31;;;;;;;24.70;16.20;;;11.50;94.90;;;;;;4984996;28;20064;-78
2021/05/18 07:18:56;;;;;;;20.77;14.68;;;11.60;95.20;;;;;;4979336;28;20034;-78
2021/05/18 07:21:24;;;;;;;21.58;17.05;;;11.60;95.80;;;;;;4964895;28;20545;-78
2021/05/18 07:23:51;;;;;;;16.08;12.10;;;11.60;95.20;;;;;;4995864;28;20037;-77
2021/05/18 07:26:17;;;;;;;20.55;11.27;;;11.70;95.10;;;;;;4983986;28;20424;-78
2021/05/18 07:28:43;;;;;;;21.15;13.88;;;11.70;95.30;;;;;;4995636;28;20034;-78
2021/05/18 07:31:08;;;;;;;15.68;9.52;;;11.80;95.40;;;;;;4991778;28;20033;-78
2021/05/18 07:33:34;;;;;;;13.88;8.70;;;11.90;95.10;;;;;;4961583;28;20701;-78
2021/05/18 07:36:07;;;;;;;19.52;13.77;;;11.90;95.20;;;;;;4965699;28;20038;-78
2021/05/18 07:38:32;;;;;;;23.42;16.30;;;12.00;95.20;;;;;;4999185;28;20507;-78
2021/05/18 07:40:58;;;;;;;20.10;15.05;;;12.30;95.20;;;;;;4979029;28;20038;-78
2021/05/18 07:43:24;;;;;;;23.10;14.13;;;12.40;94.80;;;;;;5000268;28;20038;-78
2021/05/18 07:45:58;;;;;;;25.17;14.73;;;12.40;94.90;;;;;;4967606;28;20057;-78
2021/05/18 07:48:47;;;;;;;23.05;17.80;;;12.30;95.20;;;;;;4998494;28;20113;-79
2021/05/18 07:59:34;;;;;;;22.38;13.98;;;12.50;94.80;;;;;;4987423;28;20385;-78
2021/05/18 08:07:38;;;;;;;19.00;11.68;;;12.30;94.90;;;;;;4994334;28;20041;-78
2021/05/18 08:10:12;;;;;;;22.48;15.40;;;12.20;94.80;;;;;;4995826;28;20054;-78
2021/05/18 08:12:37;;;;;;;31.38;21.02;;;12.20;95.00;;;;;;4992749;28;20441;-78
2021/05/18 10:38:26;;;;;;;5.57;3.97;;;20.70;90.30;;;;;;4303436;28;10000159;-78
2021/05/18 10:40:53;;;;;;;5.13;4.45;;;20.60;85.90;;;;;;4992250;28;20076;-77
2021/05/18 10:43:23;;;;;;;7.97;7.18;;;20.10;84.20;;;;;;4980848;28;20038;-78
2021/05/18 10:45:59;;;;;;;10.85;8.15;;;19.50;87.50;;;;;;4991903;28;20109;-78
2021/05/18 10:48:38;;;;;;;9.52;7.32;;;18.90;89.00;;;;;;4997731;28;20089;-78
2021/05/18 10:51:35;;;;;;;13.32;8.10;;;18.20;90.30;;;;;;4988099;28;20030;-79
2021/05/18 10:54:19;;;;;;;14.48;6.32;;;17.60;90.70;;;;;;4991118;28;20042;-79
2021/05/18 10:56:54;;;;;;;9.07;7.32;;;17.20;90.90;;;;;;4993038;28;20038;-79
2021/05/18 10:59:21;;;;;;;11.20;6.30;;;16.70;90.90;;;;;;4995337;28;20553;-78
2021/05/18 11:01:48;;;;;;;8.13;7.05;;;16.40;91.10;;;;;;4999450;28;20436;-79
2021/05/18 11:04:15;;;;;;;10.98;7.75;;;16.00;91.20;;;;;;4996768;28;20037;-78
2021/05/18 11:06:54;;;;;;;7.90;7.10;;;15.70;91.60;;;;;;4995075;28;20398;-78
2021/05/18 11:09:20;;;;;;;9.45;8.18;;;15.40;91.70;;;;;;4994750;28;20112;-78
2021/05/18 11:11:49;;;;;;;10.13;8.10;;;15.20;91.80;;;;;;4976664;28;20060;-78
2021/05/18 11:14:17;;;;;;;9.50;7.18;;;15.10;92.00;;;;;;4967784;28;20687;-79
2021/05/18 11:16:43;;;;;;;9.50;7.93;;;15.10;92.20;;;;;;4994773;28;20057;-79
2021/05/18 11:19:11;;;;;;;8.27;7.47;;;15.00;92.30;;;;;;4959845;28;20026;-79
2021/05/18 11:21:42;;;;;;;9.50;8.48;;;15.10;92.50;;;;;;4970059;28;20038;-79
2021/05/18 11:24:12;;;;;;;10.20;7.85;;;15.20;92.70;;;;;;4994183;28;20453;-80
2021/05/18 11:26:55;;;;;;;10.70;7.80;;;15.40;93.10;;;;;;4961045;28;20037;-80
2021/05/18 11:29:40;;;;;;;7.95;7.15;;;15.70;93.80;;;;;;4959154;28;20112;-80
2021/05/18 11:32:12;;;;;;;7.78;6.97;;;16.20;94.40;;;;;;4977487;28;20045;-80
2021/05/18 11:34:58;;;;;;;6.47;5.72;;;16.50;94.20;;;;;;4981974;28;20057;-80
2021/05/18 11:37:27;;;;;;;5.93;5.05;;;17.10;94.80;;;;;;4970861;28;20026;-80
2021/05/18 11:40:12;;;;;;;6.28;5.68;;;17.60;95.20;;;;;;4980076;28;20397;-80
2021/05/18 11:42:39;;;;;;;8.63;5.72;;;18.00;94.80;;;;;;4998427;28;20037;-80
2021/05/18 11:45:09;;;;;;;6.80;6.10;;;18.30;94.60;;;;;;4982393;28;20018;-81
2021/05/18 11:47:35;;;;;;;6.38;5.72;;;18.40;94.20;;;;;;4983425;28;20502;-80
2021/05/18 11:50:01;;;;;;;7.70;6.95;;;18.60;93.80;;;;;;4978917;28;20045;-80
2021/05/18 11:52:35;;;;;;;7.40;5.57;;;18.60;93.40;;;;;;4979272;28;20038;-81
2021/05/18 11:55:01;;;;;;;7.25;6.32;;;19.00;93.90;;;;;;4981072;28;20034;-80
2021/05/18 11:57:26;;;;;;;8.55;6.57;;;19.20;93.40;;;;;;4971566;28;20076;-80
2021/05/18 11:59:52;;;;;;;8.40;6.60;;;19.40;93.50;;;;;;4966730;28;20101;-81
2021/05/18 12:02:21;;;;;;;7.53;6.72;;;19.80;94.10;;;;;;4982495;28;20059;-81
2021/05/18 12:04:49;;;;;;;8.07;6.18;;;20.00;93.80;;;;;;4971357;28;20041;-81
2021/05/18 12:07:16;;;;;;;7.70;6.90;;;20.30;93.80;;;;;;4986161;28;20038;-81
2021/05/18 12:09:43;;;;;;;6.70;6.03;;;20.60;93.50;;;;;;4984699;28;20120;-81
2021/05/18 12:12:15;;;;;;;7.07;6.38;;;20.80;93.10;;;;;;4984639;28;20300;-80
2021/05/18 12:14:50;;;;;;;7.95;6.85;;;21.10;93.30;;;;;;4983923;28;20047;-80
2021/05/18 12:17:31;;;;;;;10.15;7.32;;;21.40;92.90;;;;;;4970700;28;20042;-80
2021/05/18 12:19:58;;;;;;;7.55;6.85;;;21.90;93.70;;;;;;4985070;28;20418;-79
2021/05/18 12:22:24;;;;;;;8.82;7.05;;;21.90;92.60;;;;;;5000379;28;20359;-80
2021/05/18 12:24:49;;;;;;;9.38;6.47;;;22.00;92.00;;;;;;4943670;28;20033;-80
2021/05/18 12:27:15;;;;;;;8.30;6.78;;;22.00;91.80;;;;;;4992441;28;20058;-79
2021/05/18 12:29:43;;;;;;;7.45;6.72;;;22.20;92.00;;;;;;4979609;28;20632;-79
2021/05/18 12:32:22;;;;;;;8.43;6.25;;;22.40;92.60;;;;;;4969678;28;20125;-79
2021/05/18 12:35:08;;;;;;;7.70;6.25;;;22.60;91.60;;;;;;4997950;28;20030;-79
2021/05/18 12:37:39;;;;;;;11.40;8.80;;;22.70;90.40;;;;;;4997307;28;20450;-79
2021/05/18 12:40:09;;;;;;;8.60;7.00;;;22.80;90.40;;;;;;5001348;28;20265;-79
2021/05/18 12:42:34;;;;;;;12.32;7.65;;;22.90;89.80;;;;;;4973966;28;20034;-78
2021/05/18 12:45:05;;;;;;;7.60;6.85;;;23.10;88.30;;;;;;4995550;28;20034;-78
2021/05/18 12:47:35;;;;;;;8.45;7.65;;;23.10;88.80;;;;;;4982220;28;20026;-78
2021/05/18 12:50:19;;;;;;;9.00;8.20;;;23.30;90.40;;;;;;4979481;28;20052;-79
2021/05/18 12:52:49;;;;;;;8.32;7.13;;;23.10;90.50;;;;;;4985866;28;20038;-79
2021/05/18 12:55:16;;;;;;;8.48;7.25;;;22.90;88.50;;;;;;4981875;28;20026;-80
2021/05/18 12:58:08;;;;;;;6.22;3.35;;;22.40;87.70;;;;;;4979465;28;20030;-79
2021/05/18 13:00:40;;;;;;;14.05;3.65;;;21.30;87.40;;;;;;5000662;28;20030;-80
2021/05/18 13:03:12;;;;;;;40.22;3.97;;;20.10;87.20;;;;;;5014883;28;20034;-80
2021/05/18 13:05:37;;;;;;;9.57;2.80;;;18.80;85.50;;;;;;4981968;28;20034;-80
2021/05/18 13:08:18;;;;;;;15.18;3.20;;;17.80;87.50;;;;;;4981468;28;20027;-80
2021/05/18 13:10:51;;;;;;;5.07;2.83;;;17.00;85.50;;;;;;5000902;28;20117;-79
2021/05/18 13:13:18;;;;;;;8.00;2.97;;;16.40;85.90;;;;;;5001450;28;20125;-79
2021/05/18 13:15:44;;;;;;;3.75;2.97;;;16.00;87.00;;;;;;4981924;28;20042;-79
2021/05/18 13:18:11;;;;;;;5.05;2.90;;;15.70;87.90;;;;;;4997967;28;20253;-79
2021/05/18 13:20:45;;;;;;;3.40;3.10;;;15.40;87.50;;;;;;4980518;28;20027;-78
2021/05/18 13:23:20;;;;;;;3.08;2.78;;;15.20;87.90;;;;;;4969544;28;20038;-80
2021/05/18 13:28:30;;;;;;;4.88;3.03;;;14.90;88.90;;;;;;4997555;28;20399;-80
2021/05/18 13:30:55;;;;;;;6.47;3.47;;;14.70;88.40;;;;;;5000619;28;20026;-80
2021/05/18 13:33:21;;;;;;;3.47;3.08;;;14.60;88.30;;;;;;4991181;28;20050;-79
2021/05/18 13:35:46;;;;;;;3.42;3.13;;;14.40;88.00;;;;;;4997834;28;20396;-79
2021/05/18 13:38:12;;;;;;;3.25;2.90;;;14.20;88.10;;;;;;4997748;28;20128;-79
2021/05/18 13:40:38;;;;;;;4.43;3.13;;;14.10;88.30;;;;;;4986378;28;20041;-79
2021/05/18 13:43:03;;;;;;;3.63;3.25;;;14.00;88.50;;;;;;4980422;28;20034;-80
2021/05/18 13:45:29;;;;;;;4.75;3.30;;;14.00;89.10;;;;;;4996156;28;20084;-79
2021/05/18 13:47:55;;;;;;;4.20;3.40;;;14.00;89.80;;;;;;5002288;28;20030;-79
2021/05/18 13:50:22;;;;;;;4.22;3.38;;;14.00;89.30;;;;;;5000070;28;20918;-79
2021/05/18 13:52:48;;;;;;;3.67;2.85;;;13.90;89.20;;;;;;4995176;28;20046;-80
2021/05/18 13:55:14;;;;;;;5.43;3.90;;;14.00;91.00;;;;;;4981807;28;20397;-80
2021/05/18 13:57:39;;;;;;;4.25;3.78;;;14.10;90.10;;;;;;4982373;28;20101;-80
2021/05/18 14:00:08;;;;;;;5.80;3.22;;;14.30;90.30;;;;;;4995345;28;20026;-80
2021/05/18 14:02:36;;;;;;;4.05;3.28;;;14.70;91.90;;;;;;4971292;28;20039;-80
2021/05/18 14:05:02;;;;;;;8.05;4.03;;;15.00;91.20;;;;;;4982159;28;20042;-80
2021/05/18 14:10:17;;;;;;;4.45;3.55;;;16.00;91.30;;;;;;4982212;28;20034;-80
2021/05/18 14:12:43;;;;;;;4.93;3.20;;;16.60;92.70;;;;;;4983301;28;20147;-80
2021/05/18 14:15:09;;;;;;;6.05;4.78;;;17.10;91.40;;;;;;4971369;28;20023;-80
2021/05/18 14:17:34;;;;;;;5.80;4.18;;;17.50;91.60;;;;;;4966741;28;20031;-80
2021/05/18 14:20:00;;;;;;;3.92;2.83;;;17.90;92.00;;;;;;4978970;28;20038;-81
2021/05/18 14:22:25;;;;;;;5.90;3.72;;;18.40;90.80;;;;;;4984921;28;20030;-81
2021/05/18 14:25:04;;;;;;;3.75;3.45;;;18.80;92.30;;;;;;4966776;28;20034;-81
2021/05/18 14:27:30;;;;;;;4.15;3.60;;;19.40;92.50;;;;;;4984506;28;20026;-81
2021/05/18 14:29:56;;;;;;;5.03;3.20;;;19.70;92.60;;;;;;4999087;28;20027;-81
2021/05/18 14:32:21;;;;;;;4.85;2.97;;;20.10;92.20;;;;;;4966631;28;20025;-81
2021/05/18 14:34:47;;;;;;;3.53;3.22;;;20.50;90.90;;;;;;4995683;28;20045;-80
2021/05/18 14:37:12;;;;;;;5.40;3.17;;;20.70;91.90;;;;;;4972395;28;20470;-80
2021/05/18 14:45:04;;;;;;;3.95;3.55;;;21.50;91.60;;;;;;4998014;28;20401;-81
2021/05/18 14:55:42;;;;;;;7.30;4.97;;;22.30;91.10;;;;;;4979886;28;20057;-80
2021/05/18 14:58:07;;;;;;;6.15;5.45;;;22.00;90.20;;;;;;4998146;28;20464;-79
2021/05/18 15:00:35;;;;;;;7.53;5.40;;;21.90;90.20;;;;;;4980135;28;20042;-79
2021/05/18 15:03:01;;;;;;;8.57;7.25;;;21.80;90.00;;;;;;4979204;28;20021;-80
2021/05/18 15:05:26;;;;;;;21.38;6.72;;;21.70;91.50;;;;;;4985780;28;20031;-80
2021/05/18 15:07:52;;;;;;;6.45;5.03;;;21.30;90.40;;;;;;4981205;28;20030;-80
2021/05/18 15:10:18;;;;;;;5.03;4.55;;;20.40;90.40;;;;;;4970419;28;20026;-79
2021/05/18 15:12:43;;;;;;;4.60;4.22;;;19.50;91.00;;;;;;4961682;28;20053;-81
2021/05/18 15:15:09;;;;;;;5.00;3.90;;;18.90;91.10;;;;;;4962534;28;20438;-79
2021/05/18 15:17:35;;;;;;;4.50;3.20;;;18.40;91.10;;;;;;4970441;28;20513;-79
2021/05/18 15:20:01;;;;;;;4.55;2.20;;;18.10;91.00;;;;;;4967081;28;20330;-79
2021/05/18 15:22:28;;;;;;;2.42;2.22;;;17.80;92.10;;;;;;4986743;28;20454;-79
2021/05/18 15:24:54;;;;;;;2.22;1.20;;;17.70;92.50;;;;;;4966978;28;20026;-80
2021/05/18 15:27:20;;;;;;;2.55;1.30;;;17.70;93.00;;;;;;4967710;28;20033;-81
2021/05/18 15:30:09;;;;;;;2.17;1.05;;;17.70;93.30;;;;;;4956695;28;20026;-80
2021/05/18 15:32:36;;;;;;;2.35;1.20;;;17.90;93.30;;;;;;4989470;28;20398;-81
2021/05/18 15:35:01;;;;;;;1.40;1.30;;;18.20;92.90;;;;;;4986101;28;20061;-80
2021/05/18 15:37:27;;;;;;;2.17;1.17;;;18.50;92.90;;;;;;4984594;28;20061;-80
2021/05/18 15:39:52;;;;;;;1.70;0.88;;;18.90;93.80;;;;;;4980632;28;20025;-81
2021/05/18 15:42:19;;;;;;;4.80;1.60;;;19.10;93.20;;;;;;4996924;28;20037;-80
2021/05/18 15:44:44;;;;;;;6.20;3.15;;;19.40;93.40;;;;;;4966266;28;20061;-80
2021/05/18 15:47:10;;;;;;;2.92;1.67;;;19.50;92.10;;;;;;4987205;28;20029;-80
2021/05/18 15:49:35;;;;;;;1.10;0.95;;;19.70;92.20;;;;;;4977654;28;20049;-80
2021/05/18 15:52:01;;;;;;;1.60;1.35;;;19.90;92.60;;;;;;4970491;28;20033;-79
2021/05/18 15:54:27;;;;;;;3.35;2.85;;;20.10;92.20;;;;;;4993332;28;20030;-80
2021/05/18 15:56:54;;;;;;;3.63;2.97;;;20.10;93.00;;;;;;4969093;28;20495;-79
2021/05/18 15:59:20;;;;;;;3.40;3.10;;;20.00;91.90;;;;;;5001586;28;20062;-79
2021/05/18 16:01:45;;;;;;;4.43;2.85;;;19.80;91.00;;;;;;4988654;28;20034;-80
2021/05/18 16:04:11;;;;;;;4.72;3.45;;;19.60;91.00;;;;;;4974177;28;20041;-80
2021/05/18 16:06:42;;;;;;;4.32;3.38;;;19.50;91.00;;;;;;5002160;28;20310;-80
2021/05/18 16:09:08;;;;;;;3.88;3.17;;;19.30;90.90;;;;;;4990018;28;20058;-80
2021/05/18 16:11:34;;;;;;;3.50;3.20;;;19.20;90.70;;;;;;4993656;28;20041;-80
2021/05/18 16:14:00;;;;;;;3.72;3.38;;;19.00;90.60;;;;;;4972674;28;20306;-80
2021/05/18 16:16:25;;;;;;;4.70;2.83;;;18.80;90.60;;;;;;4977355;28;20040;-80
2021/05/18 16:18:52;;;;;;;3.75;2.90;;;18.70;90.60;;;;;;4989095;28;20034;-83
2021/05/18 16:21:18;;;;;;;3.35;2.65;;;18.60;90.90;;;;;;4998712;28;20423;-83
2021/05/18 16:23:48;;;;;;;3.10;2.72;;;18.50;90.90;;;;;;4968062;28;20549;-84
2021/05/18 16:26:14;;;;;;;3.65;2.70;;;18.50;90.70;;;;;;4973184;28;20022;-83
2021/05/18 16:28:39;;;;;;;4.22;2.90;;;18.30;90.60;;;;;;4985216;28;20048;-83
2021/05/18 16:31:07;;;;;;;3.35;2.65;;;18.30;90.70;;;;;;4997827;28;20027;-83
2021/05/18 16:33:34;;;;;;;4.10;3.03;;;18.20;90.70;;;;;;4974685;28;20100;-83
2021/05/18 16:36:00;;;;;;;3.13;2.80;;;18.30;91.00;;;;;;4990059;28;20034;-83
2021/05/18 16:38:25;;;;;;;4.90;2.38;;;18.60;91.20;;;;;;4975267;28;20030;-83
2021/05/18 16:40:54;;;;;;;3.05;2.50;;;18.90;91.40;;;;;;5003236;28;20441;-83
2021/05/18 16:43:22;;;;;;;2.65;2.22;;;19.20;92.00;;;;;;4987057;28;20042;-82
2021/05/18 16:45:49;;;;;;;5.80;2.55;;;19.40;90.80;;;;;;4998679;28;20038;-83
2021/05/18 16:48:15;;;;;;;2.63;2.00;;;19.30;86.70;;;;;;4991111;28;20105;-83
2021/05/18 16:50:40;;;;;;;3.03;2.42;;;19.60;91.00;;;;;;4971780;28;20091;-82
2021/05/18 16:53:06;;;;;;;3.42;2.50;;;20.00;91.50;;;;;;4974816;28;20104;-83
2021/05/18 16:55:31;;;;;;;4.68;2.33;;;20.20;90.80;;;;;;4983143;28;20084;-82
2021/05/18 16:57:57;;;;;;;4.40;2.75;;;20.30;90.80;;;;;;4985892;28;20030;-83
2021/05/18 17:00:23;;;;;;;5.05;3.95;;;20.40;90.20;;;;;;4981730;28;20030;-82
2021/05/18 17:02:48;;;;;;;3.58;2.85;;;20.40;89.50;;;;;;4972435;28;20042;-82
2021/05/18 17:05:14;;;;;;;3.22;2.88;;;20.30;89.60;;;;;;4983543;28;20452;-82
2021/05/18 17:07:39;;;;;;;4.63;3.15;;;20.20;89.00;;;;;;4987019;28;20575;-82
2021/05/18 17:10:06;;;;;;;4.93;3.08;;;20.20;88.30;;;;;;4988178;28;20022;-87
2021/05/18 17:12:31;;;;;;;4.53;3.42;;;20.00;87.70;;;;;;4984128;28;20037;-87
2021/05/18 17:14:57;;;;;;;3.20;2.47;;;19.90;87.40;;;;;;4975949;28;20042;-87
2021/05/18 17:17:23;;;;;;;6.28;2.97;;;19.70;87.10;;;;;;4999958;28;20018;-82
2021/05/18 17:19:49;;;;;;;4.15;3.00;;;19.60;87.10;;;;;;4967891;28;20030;-82
2021/05/18 17:22:15;;;;;;;5.03;3.50;;;19.40;86.80;;;;;;4987319;28;20072;-81
2021/05/18 17:24:41;;;;;;;3.58;3.22;;;19.30;87.30;;;;;;4973418;28;20114;-82
2021/05/18 17:27:07;;;;;;;3.15;2.78;;;19.10;86.50;;;;;;4967663;28;20465;-83
2021/05/18 17:29:33;;;;;;;4.65;3.38;;;18.90;86.50;;;;;;4982991;28;20153;-82
2021/05/18 17:31:59;;;;;;;3.97;3.35;;;18.70;87.00;;;;;;4995670;28;20034;-83
2021/05/18 17:34:24;;;;;;;4.60;3.10;;;18.60;87.00;;;;;;4998619;28;20051;-83
2021/05/18 17:36:51;;;;;;;4.00;3.42;;;18.50;87.50;;;;;;4968756;28;20145;-82
2021/05/18 17:39:17;;;;;;;3.40;2.88;;;18.40;87.30;;;;;;4967859;28;20033;-83
2021/05/18 17:41:43;;;;;;;2.70;2.05;;;18.30;87.20;;;;;;4979185;28;20046;-82
2021/05/18 17:44:09;;;;;;;3.55;2.10;;;18.30;87.90;;;;;;4976374;28;20039;-82
2021/05/18 17:46:36;;;;;;;5.07;2.80;;;18.30;87.50;;;;;;4984381;28;20057;-82
2021/05/18 17:49:02;;;;;;;3.05;2.60;;;18.30;87.60;;;;;;5003848;28;20034;-82
2021/05/18 17:51:28;;;;;;;4.43;3.38;;;18.20;87.40;;;;;;4999165;28;20034;-82
2021/05/18 17:53:53;;;;;;;4.45;3.05;;;18.20;87.20;;;;;;4970183;28;20042;-83